createdAt,value
2022-08-03T00:00:50.660Z,14.4
2022-08-03T00:01:56.863Z,14.4
2022-08-03T00:03:03.089Z,14.3
2022-08-03T00:04:09.255Z,14.3
2022-08-03T00:05:15.452Z,14.3
2022-08-03T00:06:21.655Z,14.3
2022-08-03T00:07:27.857Z,14.3
2022-08-03T00:08:34.050Z,14.3
2022-08-03T00:09:40.243Z,14.3
2022-08-03T00:10:46.448Z,14.2
2022-08-03T00:11:52.651Z,14.2
2022-08-03T00:12:58.884Z,14.2
2022-08-03T00:14:05.063Z,14.2
2022-08-03T00:15:11.262Z,14.1
2022-08-03T00:16:16.466Z,14.1
2022-08-03T00:17:22.672Z,14.1
2022-08-03T00:18:28.873Z,14.1
2022-08-03T00:19:35.074Z,14.2
2022-08-03T00:20:41.260Z,14.1
2022-08-03T00:21:47.467Z,14.1
2022-08-03T00:22:53.658Z,14.1
2022-08-03T00:23:59.860Z,14.2
2022-08-03T00:25:06.051Z,14.2
2022-08-03T00:26:12.257Z,14.2
2022-08-03T00:27:18.465Z,14.1
2022-08-03T00:28:24.657Z,14.1
2022-08-03T00:29:30.872Z,14.1
2022-08-03T00:30:37.065Z,14.1
2022-08-03T00:31:43.258Z,14.1
2022-08-03T00:32:49.472Z,14.1
2022-08-03T00:33:55.672Z,14.1
2022-08-03T00:35:01.867Z,14.1
2022-08-03T00:36:08.076Z,14.1
2022-08-03T00:37:14.284Z,14.1
2022-08-03T00:38:20.482Z,14.1
2022-08-03T00:39:26.683Z,14
2022-08-03T00:40:32.879Z,14
2022-08-03T00:41:39.095Z,14
2022-08-03T00:42:45.301Z,14
2022-08-03T00:43:51.503Z,14
2022-08-03T00:44:57.708Z,14.1
2022-08-03T00:46:03.938Z,14.1
2022-08-03T00:47:10.107Z,14.2
2022-08-03T00:48:15.325Z,14.2
2022-08-03T00:49:21.530Z,14.1
2022-08-03T00:50:27.730Z,14.1
2022-08-03T00:51:33.939Z,14
2022-08-03T00:52:40.136Z,14
2022-08-03T00:53:46.352Z,14
2022-08-03T00:54:52.538Z,13.9
2022-08-03T00:55:58.738Z,13.9
2022-08-03T00:57:04.970Z,13.8
2022-08-03T00:58:11.169Z,13.8
2022-08-03T00:59:17.381Z,13.8
2022-08-03T01:00:23.591Z,13.9
2022-08-03T01:01:29.820Z,13.8
2022-08-03T01:02:36.004Z,13.8
2022-08-03T01:03:42.258Z,13.8
2022-08-03T01:04:48.417Z,13.8
2022-08-03T01:05:54.645Z,13.9
2022-08-03T01:07:00.817Z,14.1
2022-08-03T01:08:07.053Z,14.2
2022-08-03T01:09:13.234Z,14.2
2022-08-03T01:10:19.447Z,14.2
2022-08-03T01:11:25.652Z,14.1
2022-08-03T01:12:31.869Z,14
2022-08-03T01:13:38.066Z,14
2022-08-03T01:14:44.287Z,13.9
2022-08-03T01:15:50.489Z,13.9
2022-08-03T01:16:56.687Z,13.9
2022-08-03T01:18:02.904Z,13.8
2022-08-03T01:19:09.107Z,13.8
2022-08-03T01:20:15.320Z,13.7
2022-08-03T01:21:21.516Z,13.7
2022-08-03T01:22:27.712Z,13.6
2022-08-03T01:23:33.972Z,13.7
2022-08-03T01:24:40.138Z,13.7
2022-08-03T01:25:46.355Z,13.7
2022-08-03T01:26:52.549Z,13.7
2022-08-03T01:27:58.750Z,13.7
2022-08-03T01:29:05.061Z,13.6
2022-08-03T01:30:11.328Z,13.6
2022-08-03T01:31:16.589Z,13.6
2022-08-03T01:32:22.819Z,13.6
2022-08-03T01:33:29.003Z,13.5
2022-08-03T01:34:35.210Z,13.5
2022-08-03T01:35:41.419Z,13.5
2022-08-03T01:36:47.611Z,13.5
2022-08-03T01:37:53.826Z,13.6
2022-08-03T01:39:00.027Z,13.7
2022-08-03T01:40:06.229Z,13.6
2022-08-03T01:41:12.432Z,13.6
2022-08-03T01:42:18.637Z,13.6
2022-08-03T01:43:24.851Z,13.6
2022-08-03T01:44:31.083Z,13.6
2022-08-03T01:45:37.269Z,13.6
2022-08-03T01:46:43.490Z,13.6
2022-08-03T01:47:49.692Z,13.6
2022-08-03T01:48:55.908Z,13.6
2022-08-03T01:50:02.109Z,13.6
2022-08-03T01:51:08.320Z,13.5
2022-08-03T01:52:14.529Z,13.5
2022-08-03T01:53:20.749Z,13.5
2022-08-03T01:54:26.968Z,13.5
2022-08-03T01:55:33.160Z,13.5
2022-08-03T01:56:39.368Z,13.5
2022-08-03T01:57:45.576Z,13.5
2022-08-03T01:58:51.860Z,13.5
2022-08-03T01:59:57.125Z,13.5
2022-08-03T02:01:03.363Z,13.5
2022-08-03T02:02:09.537Z,13.5
2022-08-03T02:03:15.748Z,13.6
2022-08-03T02:04:21.938Z,13.5
2022-08-03T02:05:28.140Z,13.5
2022-08-03T02:06:34.347Z,13.5
2022-08-03T02:07:40.554Z,13.4
2022-08-03T02:08:46.747Z,13.4
2022-08-03T02:09:52.961Z,13.4
2022-08-03T02:10:59.152Z,13.4
2022-08-03T02:12:05.369Z,13.4
2022-08-03T02:13:11.566Z,13.4
2022-08-03T02:14:17.770Z,13.5
2022-08-03T02:15:23.985Z,13.4
2022-08-03T02:16:30.194Z,13.4
2022-08-03T02:17:36.406Z,13.4
2022-08-03T02:18:42.628Z,13.4
2022-08-03T02:19:48.834Z,13.3
2022-08-03T02:20:55.047Z,13.3
2022-08-03T02:22:01.257Z,13.3
2022-08-03T02:23:07.464Z,13.3
2022-08-03T02:24:13.665Z,13.3
2022-08-03T02:25:19.865Z,13.3
2022-08-03T02:26:26.073Z,13.3
2022-08-03T02:27:32.360Z,13.4
2022-08-03T02:28:37.650Z,13.4
2022-08-03T02:29:43.857Z,13.4
2022-08-03T02:30:50.066Z,13.4
2022-08-03T02:31:56.312Z,13.4
2022-08-03T02:33:02.515Z,13.4
2022-08-03T02:34:08.701Z,13.3
2022-08-03T02:35:14.919Z,13.3
2022-08-03T02:36:21.137Z,13.3
2022-08-03T02:37:27.335Z,13.3
2022-08-03T02:38:33.544Z,13.3
2022-08-03T02:39:39.758Z,13.2
2022-08-03T02:40:45.980Z,13.2
2022-08-03T02:41:52.186Z,13.3
2022-08-03T02:42:58.390Z,13.2
2022-08-03T02:44:04.598Z,13.2
2022-08-03T02:45:10.827Z,13.2
2022-08-03T02:46:17.024Z,13.2
2022-08-03T02:47:23.243Z,13.2
2022-08-03T02:48:29.458Z,13.3
2022-08-03T02:49:35.663Z,13.3
2022-08-03T02:50:41.866Z,13.2
2022-08-03T02:51:48.079Z,13.2
2022-08-03T02:52:54.299Z,13.3
2022-08-03T02:54:00.502Z,13.3
2022-08-03T02:55:06.715Z,13.3
2022-08-03T02:56:13.021Z,13.2
2022-08-03T02:57:18.298Z,13.2
2022-08-03T02:58:24.512Z,13.2
2022-08-03T02:59:30.730Z,13.1
2022-08-03T03:00:36.939Z,13.1
2022-08-03T03:01:43.147Z,13.2
2022-08-03T03:02:49.361Z,13.2
2022-08-03T03:03:55.585Z,13.2
2022-08-03T03:05:01.793Z,13.2
2022-08-03T03:06:08.021Z,13.2
2022-08-03T03:07:14.224Z,13.2
2022-08-03T03:08:20.443Z,13.1
2022-08-03T03:09:26.651Z,13
2022-08-03T03:10:32.861Z,13
2022-08-03T03:11:39.084Z,13
2022-08-03T03:12:45.297Z,13.1
2022-08-03T03:13:51.503Z,13.2
2022-08-03T03:14:57.726Z,13.4
2022-08-03T03:16:03.937Z,13.5
2022-08-03T03:17:10.139Z,13.5
2022-08-03T03:18:16.360Z,13.5
2022-08-03T03:19:22.568Z,13.4
2022-08-03T03:20:28.789Z,13.4
2022-08-03T03:21:35.011Z,13.4
2022-08-03T03:22:41.219Z,13.3
2022-08-03T03:23:47.435Z,13.2
2022-08-03T03:24:53.750Z,13.1
2022-08-03T03:25:59.025Z,13.1
2022-08-03T03:27:05.244Z,13.1
2022-08-03T03:28:11.445Z,13
2022-08-03T03:29:17.656Z,13
2022-08-03T03:30:23.882Z,13
2022-08-03T03:31:30.081Z,12.9
2022-08-03T03:32:36.304Z,13
2022-08-03T03:33:42.528Z,13.1
2022-08-03T03:34:48.727Z,13.1
2022-08-03T03:35:54.943Z,13.1
2022-08-03T03:37:01.162Z,13.1
2022-08-03T03:38:07.378Z,13.2
2022-08-03T03:39:13.587Z,13.1
2022-08-03T03:40:19.808Z,13.1
2022-08-03T03:41:26.026Z,13
2022-08-03T03:42:32.232Z,12.9
2022-08-03T03:43:38.473Z,12.9
2022-08-03T03:44:44.675Z,13
2022-08-03T03:45:50.908Z,12.9
2022-08-03T03:46:57.116Z,13
2022-08-03T03:48:03.327Z,13.1
2022-08-03T03:49:09.548Z,13.1
2022-08-03T03:50:15.773Z,13.1
2022-08-03T03:51:21.985Z,13.1
2022-08-03T03:52:28.211Z,13.2
2022-08-03T03:53:34.509Z,13.2
2022-08-03T03:54:39.796Z,13.2
2022-08-03T03:55:46.007Z,13.2
2022-08-03T03:56:52.220Z,13.2
2022-08-03T03:57:58.441Z,13.2
2022-08-03T03:59:04.665Z,13.2
2022-08-03T04:00:10.864Z,13.2
2022-08-03T04:01:17.094Z,13.2
2022-08-03T04:02:23.307Z,13.2
2022-08-03T04:03:29.519Z,13.2
2022-08-03T04:04:35.726Z,13.1
2022-08-03T04:05:41.948Z,13.1
2022-08-03T04:06:48.158Z,13.2
2022-08-03T04:07:54.373Z,13.2
2022-08-03T04:09:00.573Z,13.2
2022-08-03T04:10:06.788Z,13.2
2022-08-03T04:11:12.990Z,13.2
2022-08-03T04:12:19.212Z,13.3
2022-08-03T04:13:25.414Z,13.3
2022-08-03T04:14:31.640Z,13.4
2022-08-03T04:15:37.836Z,13.4
2022-08-03T04:16:44.064Z,13.5
2022-08-03T04:17:50.266Z,13.5
2022-08-03T04:18:56.495Z,13.5
2022-08-03T04:20:02.706Z,13.5
2022-08-03T04:21:08.894Z,13.5
2022-08-03T04:22:15.202Z,13.6
2022-08-03T04:23:20.491Z,13.6
2022-08-03T04:24:26.697Z,13.7
2022-08-03T04:25:32.905Z,13.9
2022-08-03T04:26:39.117Z,14.1
2022-08-03T04:27:45.325Z,14.1
2022-08-03T04:28:51.541Z,14.2
2022-08-03T04:29:57.735Z,14.2
2022-08-03T04:31:03.936Z,14.3
2022-08-03T04:32:10.152Z,14.3
2022-08-03T04:33:16.365Z,14.3
2022-08-03T04:34:22.574Z,14.3
2022-08-03T04:35:28.780Z,14.3
2022-08-03T04:36:34.977Z,14.3
2022-08-03T04:37:41.194Z,14.4
2022-08-03T04:38:47.389Z,14.4
2022-08-03T04:39:53.606Z,14.5
2022-08-03T04:40:59.807Z,14.6
2022-08-03T04:42:06.003Z,14.7
2022-08-03T04:43:12.204Z,14.7
2022-08-03T04:44:18.419Z,14.7
2022-08-03T04:45:24.613Z,14.7
2022-08-03T04:46:30.796Z,14.7
2022-08-03T04:47:37.007Z,14.8
2022-08-03T04:48:43.213Z,14.9
2022-08-03T04:49:49.400Z,15.3
2022-08-03T04:50:54.624Z,15.7
2022-08-03T04:52:00.838Z,15.8
2022-08-03T04:53:07.022Z,16.2
2022-08-03T04:54:12.240Z,17
2022-08-03T04:55:18.434Z,17.9
2022-08-03T04:56:23.636Z,18.8
2022-08-03T04:57:29.815Z,19.6
2022-08-03T04:58:36.003Z,20.3
2022-08-03T04:59:42.189Z,20.7
2022-08-03T05:00:48.331Z,21.2
2022-08-03T05:01:54.492Z,21.6
2022-08-03T05:03:00.637Z,21.9
2022-08-03T05:04:06.782Z,21.9
2022-08-03T05:05:12.913Z,21.8
2022-08-03T05:06:19.054Z,21.7
2022-08-03T05:07:25.153Z,21.8
2022-08-03T05:08:31.263Z,21.6
2022-08-03T05:09:37.363Z,21.5
2022-08-03T05:10:43.458Z,21.4
2022-08-03T05:11:49.552Z,21
2022-08-03T05:12:55.662Z,20.2
2022-08-03T05:14:01.760Z,19.5
2022-08-03T05:15:07.856Z,19.3
2022-08-03T05:16:13.951Z,19.9
2022-08-03T05:17:20.047Z,20.9
2022-08-03T05:18:26.126Z,21.7
2022-08-03T05:19:32.215Z,22.2
2022-08-03T05:20:38.303Z,22.7
2022-08-03T05:21:44.371Z,23
2022-08-03T05:22:50.445Z,23.5
2022-08-03T05:23:56.501Z,23.7
2022-08-03T05:25:02.557Z,24.2
2022-08-03T05:26:08.622Z,24.3
2022-08-03T05:27:14.674Z,24.6
2022-08-03T05:28:20.733Z,24.9
2022-08-03T05:29:26.761Z,24.9
2022-08-03T05:30:32.788Z,24.8
2022-08-03T05:31:38.823Z,25.1
2022-08-03T05:32:44.835Z,25.5
2022-08-03T05:33:50.852Z,25.9
2022-08-03T05:34:56.870Z,26.2
2022-08-03T05:36:02.861Z,26.6
2022-08-03T05:37:08.934Z,26.8
2022-08-03T05:38:15.015Z,26
2022-08-03T05:39:21.086Z,25.7
2022-08-03T05:40:27.151Z,24.8
2022-08-03T05:41:33.203Z,24.6
2022-08-03T05:42:39.261Z,24.9
2022-08-03T05:43:45.314Z,24.7
2022-08-03T05:44:51.367Z,24.8
2022-08-03T05:45:57.415Z,25.6
2022-08-03T05:47:03.475Z,26
2022-08-03T05:48:09.510Z,26.4
2022-08-03T05:49:15.557Z,26.4
2022-08-03T05:50:21.593Z,25.5
2022-08-03T05:51:27.759Z,25.4
2022-08-03T05:52:33.915Z,25.3
2022-08-03T05:53:40.069Z,25.5
2022-08-03T05:54:46.238Z,25.4
2022-08-03T05:55:52.411Z,26
2022-08-03T05:56:58.555Z,26.5
2022-08-03T05:58:04.688Z,25.9
2022-08-03T05:59:10.823Z,25.5
2022-08-03T06:00:16.974Z,25
2022-08-03T06:01:23.121Z,25.2
2022-08-03T06:02:29.249Z,26.2
2022-08-03T06:03:35.408Z,26.6
2022-08-03T06:04:41.522Z,26
2022-08-03T06:07:16.263Z,26.4
2022-08-03T06:08:21.510Z,27.2
2022-08-03T06:09:27.451Z,27.5
2022-08-03T06:10:33.391Z,26.7
2022-08-03T06:11:39.318Z,26.6
2022-08-03T06:12:45.246Z,27.5
2022-08-03T06:13:51.176Z,27.5
2022-08-03T06:14:57.103Z,27.7
2022-08-03T06:16:03.038Z,27.1
2022-08-03T06:17:08.961Z,27.4
2022-08-03T06:18:14.886Z,28.1
2022-08-03T06:19:20.818Z,28.6
2022-08-03T06:20:26.725Z,28.5
2022-08-03T06:21:32.648Z,28.5
2022-08-03T06:22:38.578Z,27.3
2022-08-03T06:23:44.481Z,26.9
2022-08-03T06:24:50.393Z,27.6
2022-08-03T06:25:56.320Z,27.8
2022-08-03T06:27:02.218Z,27.4
2022-08-03T06:28:08.128Z,27.7
2022-08-03T06:29:14.044Z,28.3
2022-08-03T06:30:19.949Z,28.8
2022-08-03T06:31:25.860Z,28.8
2022-08-03T06:32:31.762Z,29.1
2022-08-03T06:33:37.672Z,28.3
2022-08-03T06:34:43.594Z,27.9
2022-08-03T06:35:49.559Z,27.6
2022-08-03T06:36:55.528Z,27.3
2022-08-03T06:38:01.519Z,27.2
2022-08-03T06:39:07.520Z,27.3
2022-08-03T06:40:13.472Z,27.7
2022-08-03T06:41:19.450Z,27.8
2022-08-03T06:42:25.452Z,29.1
2022-08-03T06:43:31.426Z,29.6
2022-08-03T06:44:37.380Z,29.2
2022-08-03T06:45:43.364Z,30
2022-08-03T06:46:49.332Z,31.1
2022-08-03T06:47:55.299Z,31.8
2022-08-03T06:49:01.294Z,32.3
2022-08-03T06:50:07.363Z,32.6
2022-08-03T06:51:13.436Z,32.4
2022-08-03T06:52:19.549Z,32.4
2022-08-03T06:53:25.613Z,32.6
2022-08-03T06:54:31.683Z,33
2022-08-03T06:55:37.751Z,33.2
2022-08-03T06:56:43.828Z,33.2
2022-08-03T06:57:49.929Z,33
2022-08-03T06:58:55.978Z,32.8
2022-08-03T07:00:02.053Z,32.8
2022-08-03T07:01:08.107Z,32.7
2022-08-03T07:02:14.173Z,33
2022-08-03T07:03:20.678Z,33.3
2022-08-03T07:04:26.546Z,33.1
2022-08-03T07:05:32.865Z,32.9
2022-08-03T07:06:39.168Z,32.5
2022-08-03T07:07:45.471Z,32.4
2022-08-03T07:08:51.786Z,32.8
2022-08-03T07:09:58.084Z,32.1
2022-08-03T07:11:04.403Z,31.1
2022-08-03T07:12:10.703Z,31.8
2022-08-03T07:13:17.018Z,32
2022-08-03T07:14:23.321Z,32.7
2022-08-03T07:15:29.634Z,33.2
2022-08-03T07:16:35.942Z,32.8
2022-08-03T07:17:42.261Z,33.1
2022-08-03T07:21:03.669Z,33.1
2022-08-03T07:22:57.165Z,32.8
2022-08-03T07:24:03.029Z,32.7
2022-08-03T07:25:08.886Z,32.9
2022-08-03T07:26:14.753Z,32.7
2022-08-03T07:27:20.618Z,32.6
2022-08-03T07:28:26.471Z,32.5
2022-08-03T07:29:32.326Z,32.8
2022-08-03T07:30:38.210Z,33.2
2022-08-03T07:31:44.054Z,33.5
2022-08-03T07:32:49.936Z,32.7
2022-08-03T07:33:55.791Z,32.2
2022-08-03T07:35:01.651Z,32.2
2022-08-03T07:36:07.524Z,32.9
2022-08-03T07:37:13.379Z,33.4
2022-08-03T07:38:19.245Z,33.9
2022-08-03T07:39:25.118Z,34.5
2022-08-03T07:40:30.970Z,34.9
2022-08-03T07:41:36.839Z,34.8
2022-08-03T07:42:42.707Z,34.3
2022-08-03T07:43:48.564Z,33.7
2022-08-03T07:44:54.449Z,33.1
2022-08-03T07:46:00.290Z,33.3
2022-08-03T07:47:06.163Z,34.1
2022-08-03T07:48:11.997Z,34
2022-08-03T07:49:17.847Z,33.9
2022-08-03T07:50:23.783Z,33.8
2022-08-03T07:51:29.717Z,33.8
2022-08-03T07:52:35.647Z,33.8
2022-08-03T07:53:41.587Z,33.8
2022-08-03T07:54:47.517Z,33.9
2022-08-03T07:55:53.454Z,33.4
2022-08-03T07:56:59.404Z,33.7
2022-08-03T07:58:05.321Z,32.4
2022-08-03T07:59:11.257Z,31.5
2022-08-03T08:00:17.200Z,32
2022-08-03T08:01:23.133Z,32.9
2022-08-03T08:02:29.073Z,33.4
2022-08-03T08:03:35.010Z,33.5
2022-08-03T08:04:41.075Z,33.5
2022-08-03T08:05:47.143Z,34.1
2022-08-03T08:06:53.233Z,34.2
2022-08-03T08:07:59.265Z,34.2
2022-08-03T08:09:05.330Z,34.2
2022-08-03T08:10:11.380Z,34.2
2022-08-03T08:11:17.455Z,34.2
2022-08-03T08:12:23.512Z,33.3
2022-08-03T08:13:29.574Z,32.6
2022-08-03T08:14:35.633Z,32.4
2022-08-03T08:15:41.698Z,32.3
2022-08-03T08:16:47.756Z,32.2
2022-08-03T08:17:53.818Z,33.4
2022-08-03T08:20:28.363Z,34
2022-08-03T08:21:34.675Z,34.7
2022-08-03T08:22:41.004Z,34.8
2022-08-03T08:23:47.317Z,35.1
2022-08-03T08:24:53.614Z,33.8
2022-08-03T08:25:59.926Z,33.7
2022-08-03T08:27:06.226Z,34.1
2022-08-03T08:28:12.530Z,34.3
2022-08-03T08:29:18.863Z,33.8
2022-08-03T08:30:25.145Z,33
2022-08-03T08:31:31.449Z,33.1
2022-08-03T08:32:37.761Z,34.2
2022-08-03T08:33:44.078Z,34.4
2022-08-03T08:37:05.505Z,34.3
2022-08-03T08:38:59.018Z,35.9
2022-08-03T08:40:04.885Z,35
2022-08-03T08:41:10.766Z,33.3
2022-08-03T08:42:16.637Z,33.3
2022-08-03T08:43:22.493Z,33.3
2022-08-03T08:44:28.344Z,34.1
2022-08-03T08:45:34.238Z,34.8
2022-08-03T08:46:40.102Z,34.3
2022-08-03T08:47:45.952Z,33.2
2022-08-03T08:48:51.847Z,33.1
2022-08-03T08:49:57.695Z,33.5
2022-08-03T08:51:03.578Z,34.5
2022-08-03T08:52:09.442Z,35.2
2022-08-03T08:53:15.318Z,35.7
2022-08-03T08:54:21.188Z,35.2
2022-08-03T08:55:27.073Z,35.2
2022-08-03T08:56:32.926Z,35.5
2022-08-03T08:57:38.814Z,35.9
2022-08-03T08:58:44.673Z,36.3
2022-08-03T08:59:50.542Z,36.5
2022-08-03T09:00:56.426Z,36.8
2022-08-03T09:02:02.305Z,36.8
2022-08-03T09:03:08.174Z,36.2
2022-08-03T09:04:14.045Z,36.3
2022-08-03T09:05:19.914Z,36.9
2022-08-03T09:06:25.843Z,36.6
2022-08-03T09:07:31.816Z,36.3
2022-08-03T09:08:37.751Z,35.5
2022-08-03T09:09:43.716Z,35.4
2022-08-03T09:10:49.601Z,35.2
2022-08-03T09:11:55.545Z,35.1
2022-08-03T09:13:01.487Z,35.3
2022-08-03T09:14:07.416Z,35.5
2022-08-03T09:15:13.355Z,35.7
2022-08-03T09:16:19.316Z,35.5
2022-08-03T09:17:25.252Z,35
2022-08-03T09:18:31.200Z,34.8
2022-08-03T09:19:37.132Z,34.3
2022-08-03T09:20:43.223Z,34.3
2022-08-03T09:21:49.297Z,34.5
2022-08-03T09:22:55.364Z,35.3
2022-08-03T09:24:01.458Z,35.7
2022-08-03T09:25:07.515Z,35.3
2022-08-03T09:26:13.579Z,35.2
2022-08-03T09:27:19.653Z,34.5
2022-08-03T09:28:25.736Z,34.4
2022-08-03T09:29:31.810Z,35.1
2022-08-03T09:30:37.894Z,35.4
2022-08-03T09:31:43.969Z,35.7
2022-08-03T09:32:50.055Z,35.3
2022-08-03T09:33:56.130Z,34.8
2022-08-03T09:35:02.445Z,34.3
2022-08-03T09:36:08.773Z,34.6
2022-08-03T09:37:15.116Z,34.3
2022-08-03T09:38:21.437Z,33.7
2022-08-03T09:39:27.764Z,33
2022-08-03T09:40:34.082Z,33.5
2022-08-03T09:41:40.397Z,33.6
2022-08-03T09:42:46.739Z,33.8
2022-08-03T09:43:53.066Z,34.6
2022-08-03T09:44:59.412Z,34.6
2022-08-03T09:46:05.751Z,35.6
2022-08-03T09:47:12.092Z,36
2022-08-03T09:48:18.437Z,35.6
2022-08-03T09:51:43.214Z,35.9
2022-08-03T09:53:33.519Z,35.3
2022-08-03T09:54:39.412Z,35.4
2022-08-03T09:55:45.309Z,34.8
2022-08-03T09:56:51.214Z,35
2022-08-03T09:57:57.104Z,34.6
2022-08-03T09:59:03.014Z,34.3
2022-08-03T10:00:08.896Z,35.1
2022-08-03T10:01:14.802Z,35.2
2022-08-03T10:02:20.690Z,35.1
2022-08-03T10:03:26.584Z,34.9
2022-08-03T10:04:32.482Z,35.3
2022-08-03T10:05:38.377Z,35.3
2022-08-03T10:06:44.285Z,34.8
2022-08-03T10:07:50.195Z,34.7
2022-08-03T10:08:56.082Z,34.2
2022-08-03T10:10:02.013Z,34.1
2022-08-03T10:11:07.902Z,34.2
2022-08-03T10:12:13.815Z,34.7
2022-08-03T10:13:19.728Z,35
2022-08-03T10:14:25.637Z,35.5
2022-08-03T10:15:31.545Z,35.7
2022-08-03T10:16:37.457Z,35.8
2022-08-03T10:17:43.412Z,35.9
2022-08-03T10:18:49.292Z,35
2022-08-03T10:19:55.211Z,34.1
2022-08-03T10:21:01.199Z,34
2022-08-03T10:22:07.200Z,34.9
2022-08-03T10:23:13.195Z,34.4
2022-08-03T10:24:19.180Z,35
2022-08-03T10:25:25.181Z,35.2
2022-08-03T10:26:31.212Z,34.6
2022-08-03T10:27:37.207Z,34.1
2022-08-03T10:28:43.211Z,34.6
2022-08-03T10:29:49.214Z,35
2022-08-03T10:30:55.218Z,35.5
2022-08-03T10:32:01.242Z,36.1
2022-08-03T10:33:07.230Z,36.6
2022-08-03T10:34:13.234Z,37.2
2022-08-03T10:35:19.359Z,37.4
2022-08-03T10:36:25.479Z,37.6
2022-08-03T10:37:31.613Z,37.3
2022-08-03T10:38:37.739Z,37.4
2022-08-03T10:39:43.864Z,37.3
2022-08-03T10:40:49.981Z,36.6
2022-08-03T10:41:56.105Z,36.9
2022-08-03T10:43:02.235Z,37.2
2022-08-03T10:44:08.352Z,37.2
2022-08-03T10:45:14.473Z,37.6
2022-08-03T10:46:20.608Z,38
2022-08-03T10:47:26.720Z,37.8
2022-08-03T10:48:32.854Z,37.5
2022-08-03T10:51:07.530Z,36.5
2022-08-03T10:52:12.785Z,35.9
2022-08-03T10:53:18.708Z,36.1
2022-08-03T10:54:24.610Z,36
2022-08-03T10:55:30.536Z,35.8
2022-08-03T10:56:36.472Z,35.5
2022-08-03T10:57:42.419Z,35.5
2022-08-03T10:58:48.300Z,34.7
2022-08-03T10:59:54.229Z,35
2022-08-03T11:01:00.148Z,35.7
2022-08-03T11:02:06.079Z,35.7
2022-08-03T11:03:12.010Z,35.3
2022-08-03T11:04:17.958Z,35.5
2022-08-03T11:05:23.859Z,34.7
2022-08-03T11:06:29.790Z,34.8
2022-08-03T11:07:35.729Z,35.1
2022-08-03T11:08:41.674Z,34.7
2022-08-03T11:09:47.571Z,35.1
2022-08-03T11:10:53.502Z,34.5
2022-08-03T11:11:59.430Z,34.6
2022-08-03T11:13:05.349Z,34.3
2022-08-03T11:14:11.275Z,34.7
2022-08-03T11:15:17.218Z,34.3
2022-08-03T11:16:23.138Z,34.2
2022-08-03T11:17:29.090Z,34.7
2022-08-03T11:18:35.010Z,35.4
2022-08-03T11:19:41.015Z,36.1
2022-08-03T11:20:47.031Z,36.3
2022-08-03T11:21:53.032Z,36
2022-08-03T11:22:59.052Z,36
2022-08-03T11:24:05.066Z,35.3
2022-08-03T11:25:11.057Z,35.5
2022-08-03T11:26:17.065Z,35.9
2022-08-03T11:27:23.082Z,36
2022-08-03T11:28:29.109Z,35.8
2022-08-03T11:29:35.095Z,35.6
2022-08-03T11:30:41.103Z,36.4
2022-08-03T11:31:47.111Z,36.9
2022-08-03T11:32:53.118Z,37.3
2022-08-03T11:33:59.250Z,36.4
2022-08-03T11:35:05.386Z,36.3
2022-08-03T11:36:11.536Z,36.4
2022-08-03T11:37:17.681Z,36.1
2022-08-03T11:38:23.779Z,36.4
2022-08-03T11:39:29.917Z,36.4
2022-08-03T11:40:36.053Z,36.6
2022-08-03T11:41:42.168Z,36
2022-08-03T11:42:48.306Z,35.8
2022-08-03T11:43:54.425Z,36
2022-08-03T11:45:00.554Z,36.1
2022-08-03T11:46:06.690Z,35.6
2022-08-03T11:47:12.885Z,35.1
2022-08-03T11:50:09.496Z,34.8
2022-08-03T11:51:14.759Z,34.3
2022-08-03T11:52:20.685Z,34.4
2022-08-03T11:53:26.619Z,35.3
2022-08-03T11:54:32.538Z,35.7
2022-08-03T11:55:38.472Z,36.2
2022-08-03T11:56:44.408Z,36.6
2022-08-03T11:57:50.357Z,36.3
2022-08-03T11:58:56.269Z,36.1
2022-08-03T12:00:02.208Z,36
2022-08-03T12:01:08.133Z,35.8
2022-08-03T12:02:14.057Z,36
2022-08-03T12:03:19.978Z,36.1
2022-08-03T12:04:25.925Z,36
2022-08-03T12:05:31.846Z,36.1
2022-08-03T12:06:37.785Z,36.5
2022-08-03T12:07:43.718Z,36.9
2022-08-03T12:08:49.679Z,36.7
2022-08-03T12:09:55.578Z,36.3
2022-08-03T12:11:01.508Z,36.5
2022-08-03T12:12:07.435Z,37
2022-08-03T12:13:13.380Z,37.2
2022-08-03T12:14:19.307Z,36.5
2022-08-03T12:15:25.223Z,36.3
2022-08-03T12:16:31.161Z,36.3
2022-08-03T12:17:37.097Z,36.2
2022-08-03T12:18:43.091Z,36.8
2022-08-03T12:19:49.101Z,37
2022-08-03T12:20:55.095Z,37.6
2022-08-03T12:22:01.097Z,37.9
2022-08-03T12:23:07.103Z,38.1
2022-08-03T12:24:13.137Z,37.9
2022-08-03T12:25:19.109Z,37.6
2022-08-03T12:26:25.109Z,37.8
2022-08-03T12:27:31.100Z,37.6
2022-08-03T12:28:37.106Z,37
2022-08-03T12:29:43.115Z,36.6
2022-08-03T12:30:49.119Z,36.3
2022-08-03T12:31:55.104Z,35.3
2022-08-03T12:33:01.254Z,35
2022-08-03T12:34:07.378Z,34.7
2022-08-03T12:35:13.506Z,34.3
2022-08-03T12:36:19.629Z,34.8
2022-08-03T12:37:25.752Z,35.2
2022-08-03T12:38:31.885Z,34.9
2022-08-03T12:39:38.011Z,35
2022-08-03T12:40:44.137Z,35.4
2022-08-03T12:41:50.269Z,35
2022-08-03T12:42:56.413Z,35
2022-08-03T12:44:02.530Z,34.7
2022-08-03T12:45:08.664Z,35.3
2022-08-03T12:46:14.785Z,36
2022-08-03T12:48:49.502Z,36.1
2022-08-03T12:49:54.792Z,35.8
2022-08-03T12:51:00.687Z,35.1
2022-08-03T12:52:06.613Z,34.6
2022-08-03T12:53:12.544Z,34.3
2022-08-03T12:54:18.478Z,34.8
2022-08-03T12:55:24.400Z,35.3
2022-08-03T12:56:30.336Z,35.7
2022-08-03T12:57:36.255Z,35.5
2022-08-03T12:58:42.179Z,35.4
2022-08-03T12:59:48.111Z,35.8
2022-08-03T13:00:54.044Z,35.8
2022-08-03T13:01:59.965Z,36
2022-08-03T13:03:05.915Z,35.8
2022-08-03T13:04:11.833Z,35.8
2022-08-03T13:05:17.775Z,35.7
2022-08-03T13:06:23.732Z,36
2022-08-03T13:07:29.636Z,35.5
2022-08-03T13:08:35.572Z,34.8
2022-08-03T13:09:41.505Z,35.6
2022-08-03T13:10:47.443Z,36.2
2022-08-03T13:11:53.377Z,36.5
2022-08-03T13:12:59.333Z,36.6
2022-08-03T13:14:05.247Z,37
2022-08-03T13:15:11.175Z,37.2
2022-08-03T13:16:17.094Z,37.4
2022-08-03T13:17:23.132Z,36.4
2022-08-03T13:18:29.112Z,35.5
2022-08-03T13:19:35.127Z,35.2
2022-08-03T13:20:41.110Z,35.1
2022-08-03T13:21:47.112Z,35.3
2022-08-03T13:22:53.109Z,35.2
2022-08-03T13:23:59.103Z,35.1
2022-08-03T13:25:05.117Z,34.9
2022-08-03T13:26:11.116Z,34.3
2022-08-03T13:27:17.136Z,34.6
2022-08-03T13:28:23.151Z,34.4
2022-08-03T13:29:29.145Z,34.4
2022-08-03T13:30:35.153Z,34.7
2022-08-03T13:31:41.291Z,35.4
2022-08-03T13:32:47.423Z,35.4
2022-08-03T13:33:53.568Z,36
2022-08-03T13:34:59.695Z,36
2022-08-03T13:36:05.835Z,35.5
2022-08-03T13:37:11.976Z,35.5
2022-08-03T13:38:18.112Z,35.8
2022-08-03T13:39:24.241Z,36.1
2022-08-03T13:40:30.395Z,35.7
2022-08-03T13:41:36.524Z,35.6
2022-08-03T13:42:42.653Z,35.7
2022-08-03T13:43:48.783Z,36.1
2022-08-03T13:44:54.923Z,36.5
2022-08-03T13:47:51.617Z,36
2022-08-03T13:48:56.844Z,36.5
2022-08-03T13:50:02.787Z,36.7
2022-08-03T13:51:08.703Z,36.4
2022-08-03T13:52:14.638Z,36.3
2022-08-03T13:53:20.614Z,36.2
2022-08-03T13:54:26.495Z,35.8
2022-08-03T13:55:32.427Z,36.1
2022-08-03T13:56:38.338Z,36.8
2022-08-03T13:57:44.265Z,37.2
2022-08-03T13:58:50.211Z,37.3
2022-08-03T13:59:56.126Z,37.2
2022-08-03T14:01:02.049Z,37
2022-08-03T14:02:07.969Z,36.7
2022-08-03T14:03:13.893Z,36.3
2022-08-03T14:04:19.829Z,35.4
2022-08-03T14:05:25.744Z,34.9
2022-08-03T14:06:31.674Z,34.3
2022-08-03T14:07:37.625Z,34.2
2022-08-03T14:08:43.534Z,34.6
2022-08-03T14:09:49.458Z,34.6
2022-08-03T14:10:55.395Z,34.9
2022-08-03T14:12:01.288Z,35.4
2022-08-03T14:13:07.216Z,35.5
2022-08-03T14:14:13.154Z,35.8
2022-08-03T14:15:19.077Z,35.9
2022-08-03T14:16:25.103Z,36.1
2022-08-03T14:17:31.090Z,35.7
2022-08-03T14:18:37.097Z,35.8
2022-08-03T14:19:43.099Z,35.6
2022-08-03T14:20:49.116Z,34.9
2022-08-03T14:21:55.117Z,34.8
2022-08-03T14:23:01.129Z,34.3
2022-08-03T14:24:07.143Z,34.9
2022-08-03T14:25:13.145Z,35.7
2022-08-03T14:26:19.176Z,36.1
2022-08-03T14:27:25.179Z,35.7
2022-08-03T14:28:31.189Z,36
2022-08-03T14:29:37.182Z,36.6
2022-08-03T14:30:43.335Z,36.7
2022-08-03T14:31:49.452Z,37
2022-08-03T14:32:55.590Z,36.6
2022-08-03T14:34:01.742Z,36.7
2022-08-03T14:35:07.879Z,36.6
2022-08-03T14:36:14.002Z,36.5
2022-08-03T14:37:20.117Z,35.4
2022-08-03T14:38:26.259Z,35.7
2022-08-03T14:39:32.378Z,35.4
2022-08-03T14:40:38.516Z,36
2022-08-03T14:41:44.661Z,36.2
2022-08-03T14:42:50.780Z,35.9
2022-08-03T14:43:56.919Z,35.2
2022-08-03T14:46:31.627Z,34.9
2022-08-03T14:47:36.900Z,35.2
2022-08-03T14:48:42.849Z,35
2022-08-03T14:50:10.265Z,34.6
2022-08-03T14:50:54.734Z,34.8
2022-08-03T14:52:00.673Z,35.1
2022-08-03T14:53:06.608Z,35.4
2022-08-03T14:54:12.545Z,35.9
2022-08-03T14:55:18.499Z,36.4
2022-08-03T14:56:24.422Z,36.7
2022-08-03T14:57:30.355Z,37
2022-08-03T14:58:36.300Z,37.2
2022-08-03T14:59:42.233Z,37.2
2022-08-03T15:00:48.170Z,37.2
2022-08-03T15:01:54.095Z,37.1
2022-08-03T15:03:00.030Z,36.8
2022-08-03T15:04:05.956Z,35.9
2022-08-03T15:05:11.896Z,35.2